Time;durP1;ratioP1;P1;durP2;ratioP2;P2;SDS_P1;SDS_P2;PMS_P1;PMS_P2;Temp;Humidity;BMP_temperature;BMP_pressure;BME280_temperature;BME280_humidity;BME280_pressure;Samples;Min_cycle;Max_cycle;Signal;HPM_P1;HPM_P2
2021/08/05 00:01:47;;;;;;;33.30;6.47;;;;;;;14.93;100.00;97348.94;4989990;28;20061;-81
2021/08/05 00:04:14;;;;;;;21.58;6.90;;;;;;;14.90;100.00;97360.53;5006078;28;20132;-82
2021/08/05 00:06:40;;;;;;;19.92;6.35;;;;;;;14.91;100.00;97351.25;5006179;28;20052;-81
2021/08/05 00:09:07;;;;;;;30.65;6.57;;;;;;;14.81;100.00;97338.88;5003932;28;20057;-81
2021/08/05 00:11:34;;;;;;;41.53;7.90;;;;;;;14.75;100.00;97356.66;5001625;28;20050;-81
2021/08/05 00:14:01;;;;;;;33.97;7.10;;;;;;;14.64;100.00;97347.41;5001344;28;20049;-81
2021/08/05 00:16:28;;;;;;;51.55;7.47;;;;;;;14.56;100.00;97345.63;5017260;28;20122;-81
2021/08/05 00:18:54;;;;;;;33.05;6.75;;;;;;;14.59;100.00;97347.66;5003750;28;20053;-81
2021/08/05 00:21:21;;;;;;;28.27;7.10;;;;;;;14.60;100.00;97346.53;5001826;28;20049;-81
2021/08/05 00:23:47;;;;;;;35.47;6.90;;;;;;;14.64;100.00;97350.13;5001178;28;20073;-80
2021/08/05 00:26:14;;;;;;;26.15;6.72;;;;;;;14.70;100.00;97351.47;5001046;28;20049;-81
2021/08/05 00:28:43;;;;;;;19.77;6.40;;;;;;;14.75;100.00;97350.41;5002407;28;20042;-81
2021/08/05 00:31:13;;;;;;;18.40;6.78;;;;;;;14.75;100.00;97344.97;5019269;28;20507;-81
2021/08/05 00:33:39;;;;;;;21.65;6.97;;;;;;;14.76;100.00;97350.03;5000482;28;20565;-81
2021/08/05 00:36:06;;;;;;;25.23;6.95;;;;;;;14.78;100.00;97341.53;4999919;28;20052;-81
2021/08/05 00:38:33;;;;;;;21.40;6.80;;;;;;;14.74;100.00;97346.09;4983807;28;20038;-81
2021/08/05 00:40:59;;;;;;;31.83;6.90;;;;;;;14.68;100.00;97331.16;5015262;28;20045;-82
2021/08/05 00:43:28;;;;;;;25.15;6.97;;;;;;;14.68;100.00;97344.78;4997001;28;20048;-81
2021/08/05 00:45:55;;;;;;;26.90;6.93;;;;;;;14.66;100.00;97334.22;4998331;28;20258;-82
2021/08/05 00:48:25;;;;;;;28.58;6.60;;;;;;;14.69;100.00;97338.97;4982427;28;20056;-81
2021/08/05 00:50:52;;;;;;;26.95;7.03;;;;;;;14.66;100.00;97339.66;4986234;28;20057;-81
2021/08/05 00:53:22;;;;;;;19.33;7.07;;;;;;;14.69;100.00;97338.97;4999277;28;20056;-82
2021/08/05 00:55:49;;;;;;;20.45;7.45;;;;;;;14.70;100.00;97340.56;5031932;28;20411;-81
2021/08/05 00:58:15;;;;;;;27.85;7.00;;;;;;;14.75;100.00;97347.69;4990368;28;20053;-80
2021/08/05 01:00:47;;;;;;;27.45;6.57;;;;;;;14.68;100.00;97334.69;4998688;28;20045;-80
2021/08/05 01:03:25;;;;;;;39.85;7.97;;;;;;;14.50;100.00;97336.13;4997508;28;20073;-81
2021/08/05 01:06:08;;;;;;;33.92;8.70;;;;;;;14.49;100.00;97336.44;4981286;28;20334;-80
2021/08/05 01:08:41;;;;;;;18.45;8.40;;;;;;;14.51;100.00;97336.88;4997293;28;20388;-81
2021/08/05 01:11:21;;;;;;;21.52;8.88;;;;;;;14.51;100.00;97331.44;5014271;28;20045;-81
2021/08/05 01:13:55;;;;;;;30.48;8.05;;;;;;;14.50;100.00;97333.41;4995083;28;20046;-80
2021/08/05 01:16:32;;;;;;;23.25;8.75;;;;;;;14.53;100.00;97338.13;5015023;28;20038;-81
2021/08/05 01:19:08;;;;;;;35.03;9.48;;;;;;;14.53;100.00;97331.91;4997846;28;20495;-81
2021/08/05 01:21:47;;;;;;;35.85;10.23;;;;;;;14.48;100.00;97335.66;5014989;28;20046;-81
2021/08/05 01:24:19;;;;;;;28.10;9.95;;;;;;;14.47;100.00;97322.41;5017567;28;20065;-81
2021/08/05 01:26:46;;;;;;;30.13;9.68;;;;;;;14.54;100.00;97325.31;4997728;28;20042;-80
2021/08/05 01:29:24;;;;;;;24.35;10.27;;;;;;;14.57;100.00;97322.69;5012261;28;20080;-81
2021/08/05 01:31:52;;;;;;;19.02;9.65;;;;;;;14.56;100.00;97329.25;4995154;28;20065;-80
2021/08/05 01:34:21;;;;;;;25.55;10.02;;;;;;;14.57;100.00;97327.34;5012811;28;20129;-82
2021/08/05 01:36:48;;;;;;;39.78;10.20;;;;;;;14.48;100.00;97316.59;5011585;28;20062;-80
2021/08/05 01:39:17;;;;;;;21.98;9.57;;;;;;;14.44;100.00;97317.63;4995714;28;20067;-81
2021/08/05 01:41:46;;;;;;;29.77;8.63;;;;;;;14.42;100.00;97328.88;4996241;28;20120;-81
2021/08/05 01:44:13;;;;;;;29.75;9.57;;;;;;;14.42;100.00;97323.44;4997066;28;20104;-81
2021/08/05 01:46:42;;;;;;;22.95;9.05;;;;;;;14.47;100.00;97325.91;5013540;28;20053;-81
2021/08/05 01:49:12;;;;;;;29.52;9.45;;;;;;;14.43;100.00;97322.28;5017731;28;20053;-81
2021/08/05 01:51:39;;;;;;;37.40;8.98;;;;;;;14.44;100.00;97326.59;5016439;28;20046;-81
2021/08/05 01:54:08;;;;;;;26.80;9.10;;;;;;;14.44;100.00;97314.91;5016522;28;20045;-81
2021/08/05 01:56:35;;;;;;;26.27;9.20;;;;;;;14.53;100.00;97312.84;5024259;28;20037;-82
2021/08/05 01:59:04;;;;;;;27.27;8.85;;;;;;;14.54;100.00;97315.22;5000979;28;20431;-82
2021/08/05 02:01:33;;;;;;;25.02;8.32;;;;;;;14.57;100.00;97316.44;4978550;28;20149;-81
2021/08/05 02:04:19;;;;;;;21.25;8.48;;;;;;;14.64;100.00;97322.88;4996845;28;20136;-81
2021/08/05 02:06:55;;;;;;;18.23;8.02;;;;;;;14.67;100.00;97321.38;4996553;28;20167;-80
2021/08/05 02:09:31;;;;;;;24.90;8.70;;;;;;;14.61;100.00;97315.38;4996923;28;20050;-80
2021/08/05 02:11:59;;;;;;;19.45;8.13;;;;;;;14.69;100.00;97311.72;4997637;28;20065;-80
2021/08/05 02:14:30;;;;;;;18.63;8.38;;;;;;;14.69;100.00;97317.16;4996746;28;20046;-80
2021/08/05 02:17:00;;;;;;;13.95;8.25;;;;;;;14.71;100.00;97314.13;5011902;28;20049;-80
2021/08/05 02:19:31;;;;;;;17.45;8.43;;;;;;;14.71;100.00;97306.72;4980691;28;20542;-79
2021/08/05 02:21:59;;;;;;;16.75;7.85;;;;;;;14.71;100.00;97306.72;4979434;28;20058;-81
2021/08/05 02:24:30;;;;;;;30.45;9.30;;;;;;;14.74;100.00;97308.75;5011899;28;20053;-81
2021/08/05 02:26:58;;;;;;;15.35;8.70;;;;;;;14.73;100.00;97301.72;4998257;28;20038;-80
2021/08/05 02:29:27;;;;;;;19.27;8.30;;;;;;;14.68;100.00;97301.97;5016453;28;20062;-82
2021/08/05 02:31:54;;;;;;;20.42;9.07;;;;;;;14.66;100.00;97306.19;5016238;28;20101;-80
2021/08/05 02:34:23;;;;;;;25.42;8.60;;;;;;;14.64;100.00;97301.06;5017379;28;20046;-81
2021/08/05 02:36:53;;;;;;;44.22;9.95;;;;;;;14.60;100.00;97304.84;5000125;28;20422;-81
2021/08/05 02:39:20;;;;;;;48.50;9.82;;;;;;;14.53;100.00;97299.22;5023296;28;20084;-83
2021/08/05 02:41:49;;;;;;;33.60;9.25;;;;;;;14.49;100.00;97299.13;5029110;28;20046;-82
2021/08/05 02:44:17;;;;;;;60.03;11.40;;;;;;;14.44;100.00;97288.47;5011277;28;20073;-81
2021/08/05 02:46:46;;;;;;;47.60;11.23;;;;;;;14.40;100.00;97290.28;5026607;28;20042;-81
2021/08/05 02:49:15;;;;;;;51.72;10.88;;;;;;;14.43;100.00;97299.72;5009785;28;20038;-82
2021/08/05 02:51:43;;;;;;;29.77;9.57;;;;;;;14.50;100.00;97299.91;4999101;28;20503;-81
2021/08/05 02:54:10;;;;;;;43.83;9.73;;;;;;;14.54;100.00;97298.88;4991471;28;20042;-81
2021/08/05 02:56:39;;;;;;;39.70;9.57;;;;;;;14.62;100.00;97295.19;5027727;28;20305;-82
2021/08/05 02:59:05;;;;;;;25.70;8.73;;;;;;;14.62;100.00;97289.75;5014181;28;20411;-80
2021/08/05 03:01:32;;;;;;;20.23;9.32;;;;;;;14.67;100.00;97294.13;5008932;28;20038;-81
2021/08/05 03:03:59;;;;;;;30.40;9.65;;;;;;;14.67;100.00;97283.25;4997768;28;20042;-81
2021/08/05 03:06:27;;;;;;;21.83;9.48;;;;;;;14.65;100.00;97286.31;5004690;28;20043;-81
2021/08/05 03:08:55;;;;;;;22.10;8.68;;;;;;;14.62;100.00;97273.41;4979751;28;20046;-81
2021/08/05 03:11:22;;;;;;;37.33;9.73;;;;;;;14.54;100.00;97284.44;4998852;28;20047;-83
2021/08/05 03:13:49;;;;;;;39.00;10.75;;;;;;;14.50;100.00;97281.66;4998484;28;20053;-81
2021/08/05 03:16:16;;;;;;;28.48;9.90;;;;;;;14.48;100.00;97288.59;4980955;28;20042;-81
2021/08/05 03:18:45;;;;;;;28.52;10.18;;;;;;;14.52;100.00;97286.72;4999181;28;20073;-80
2021/08/05 03:21:12;;;;;;;25.60;9.18;;;;;;;14.59;100.00;97282.25;4979632;28;20089;-82
2021/08/05 03:23:39;;;;;;;30.20;10.00;;;;;;;14.58;100.00;97293.53;5002598;28;20049;-81
2021/08/05 03:26:06;;;;;;;28.95;9.90;;;;;;;14.61;100.00;97288.16;5004177;28;20045;-80
2021/08/05 03:28:35;;;;;;;40.33;9.50;;;;;;;14.61;100.00;97285.44;5005147;28;20046;-81
2021/08/05 03:31:01;;;;;;;33.83;9.20;;;;;;;14.59;100.00;97279.53;5002600;28;20056;-80
2021/08/05 03:33:30;;;;;;;33.53;9.88;;;;;;;14.57;100.00;97278.31;4989541;28;20046;-82
2021/08/05 03:35:57;;;;;;;34.90;11.55;;;;;;;14.55;100.00;97277.88;4985402;28;20052;-81
2021/08/05 03:38:23;;;;;;;38.83;10.63;;;;;;;14.64;100.00;97283.94;4995405;28;20041;-81
2021/08/05 03:40:54;;;;;;;49.65;11.38;;;;;;;14.59;100.00;97286.91;4986903;28;20046;-81
2021/08/05 03:43:21;;;;;;;32.63;10.27;;;;;;;14.60;100.00;97285.78;4996579;28;20474;-81
2021/08/05 03:45:49;;;;;;;30.73;11.15;;;;;;;14.69;100.00;97280.94;5022428;28;20061;-82
2021/08/05 03:48:18;;;;;;;27.35;9.60;;;;;;;14.69;100.00;97281.75;4989539;28;20049;-81
2021/08/05 03:50:45;;;;;;;37.17;10.70;;;;;;;14.70;100.00;97286.06;4974032;28;20145;-81
2021/08/05 03:53:11;;;;;;;25.17;9.20;;;;;;;14.78;100.00;97276.94;5015013;28;20046;-81
2021/08/05 03:55:38;;;;;;;20.05;8.82;;;;;;;14.88;100.00;97279.13;5010898;28;20131;-81
2021/08/05 03:58:07;;;;;;;28.50;8.88;;;;;;;14.91;100.00;97275.72;4994816;28;20499;-82
2021/08/05 04:00:33;;;;;;;22.33;9.07;;;;;;;14.90;100.00;97276.06;4957949;28;20058;-80
2021/08/05 04:03:00;;;;;;;18.92;9.32;;;;;;;14.92;100.00;97276.47;5022044;28;20033;-83
2021/08/05 04:05:29;;;;;;;24.08;9.75;;;;;;;14.95;100.00;97275.78;5000401;28;20511;-82
2021/08/05 04:07:56;;;;;;;18.73;9.07;;;;;;;14.90;100.00;97276.84;4979680;28;20061;-81
2021/08/05 04:10:22;;;;;;;17.00;9.55;;;;;;;14.91;100.00;97266.75;4995269;28;20120;-81
2021/08/05 04:12:50;;;;;;;20.85;9.35;;;;;;;14.91;100.00;97274.91;5023440;28;20049;-81
2021/08/05 04:15:16;;;;;;;26.90;9.15;;;;;;;15.01;100.00;97268.13;5039389;28;20044;-83
2021/08/05 04:17:43;;;;;;;17.98;8.23;;;;;;;15.06;100.00;97262.41;5025772;28;20037;-83
2021/08/05 04:20:13;;;;;;;29.70;8.55;;;;;;;15.01;100.00;97271.66;5040115;28;20046;-84
2021/08/05 04:22:39;;;;;;;20.95;9.40;;;;;;;14.96;100.00;97271.94;5043998;28;20046;-82
2021/08/05 04:25:08;;;;;;;23.02;9.63;;;;;;;14.94;100.00;97266.03;5024971;28;20096;-83
2021/08/05 04:27:39;;;;;;;31.55;9.45;;;;;;;14.99;100.00;97263.81;5023190;28;20046;-81
2021/08/05 04:30:09;;;;;;;29.23;9.18;;;;;;;15.05;100.00;97258.91;5038638;28;20045;-82
2021/08/05 04:32:36;;;;;;;17.45;8.57;;;;;;;15.13;100.00;97259.84;5025030;28;20037;-81
2021/08/05 04:35:04;;;;;;;17.55;7.72;;;;;;;15.12;100.00;97253.63;4997635;28;20510;-82
2021/08/05 04:37:30;;;;;;;16.60;7.55;;;;;;;15.15;100.00;97258.38;5013524;28;20104;-82
2021/08/05 04:39:57;;;;;;;17.05;7.53;;;;;;;15.22;100.00;97253.09;4995477;28;20066;-81
2021/08/05 04:42:24;;;;;;;13.55;7.90;;;;;;;15.27;100.00;97249.31;5013518;28;20045;-81
2021/08/05 04:44:51;;;;;;;11.63;7.97;;;;;;;15.29;100.00;97250.53;5017248;28;20052;-82
2021/08/05 04:47:20;;;;;;;16.02;7.93;;;;;;;15.37;100.00;97244.09;4997661;28;20045;-80
2021/08/05 04:49:46;;;;;;;18.50;8.23;;;;;;;15.35;100.00;97240.16;5009567;28;20049;-79
2021/08/05 04:52:13;;;;;;;17.85;7.82;;;;;;;15.49;100.00;97243.19;5009581;28;20114;-79
2021/08/05 04:54:39;;;;;;;17.25;8.02;;;;;;;15.48;100.00;97233.47;5010403;28;20049;-80
2021/08/05 04:57:11;;;;;;;18.23;7.57;;;;;;;15.50;100.00;97242.88;5010155;28;20042;-80
2021/08/05 04:59:38;;;;;;;23.10;8.40;;;;;;;15.51;100.00;97232.75;5009657;28;20517;-80
2021/08/05 05:02:04;;;;;;;25.42;8.40;;;;;;;15.54;100.00;97232.81;5027077;28;20052;-80
2021/08/05 05:04:31;;;;;;;23.58;8.50;;;;;;;15.60;100.00;97241.50;5011291;28;20041;-80
2021/08/05 05:06:58;;;;;;;24.83;8.93;;;;;;;15.55;100.00;97234.41;5041138;28;20049;-82
2021/08/05 05:09:24;;;;;;;20.70;9.18;;;;;;;15.68;100.00;97226.09;5020081;28;20136;-80
2021/08/05 05:11:51;;;;;;;17.08;9.10;;;;;;;15.53;100.00;97225.78;5011440;28;20502;-80
2021/08/05 05:14:18;;;;;;;14.73;9.13;;;;;;;15.68;100.00;97223.34;5034432;28;20057;-81
2021/08/05 05:16:45;;;;;;;15.25;8.80;;;;;;;15.89;100.00;97221.06;5011401;28;20628;-80
2021/08/05 05:19:12;;;;;;;20.08;8.95;;;;;;;16.04;100.00;97226.47;5012237;28;20112;-80
2021/08/05 05:21:40;;;;;;;19.27;9.32;;;;;;;16.12;100.00;97217.25;5009392;28;20045;-80
2021/08/05 05:24:07;;;;;;;13.68;8.35;;;;;;;16.10;100.00;97218.78;5011016;28;20075;-79
2021/08/05 05:26:51;;;;;;;17.38;8.30;;;;;;;16.34;100.00;97218.44;4980180;28;20554;-79
2021/08/05 05:29:17;;;;;;;11.68;7.78;;;;;;;16.58;100.00;97222.81;5008220;28;20046;-80
2021/08/05 05:31:44;;;;;;;12.93;8.05;;;;;;;16.65;100.00;97218.25;5022837;28;20806;-79
2021/08/05 05:34:14;;;;;;;13.00;7.82;;;;;;;16.82;100.00;97211.53;5010035;28;20502;-79
2021/08/05 05:36:41;;;;;;;11.93;7.32;;;;;;;16.94;100.00;97205.06;4989098;28;20046;-80
2021/08/05 05:39:09;;;;;;;18.63;8.20;;;;;;;16.69;100.00;97210.91;5007181;28;20049;-80
2021/08/05 05:41:36;;;;;;;9.07;7.13;;;;;;;16.80;100.00;97206.41;5020091;28;20053;-80
2021/08/05 05:44:03;;;;;;;13.43;7.55;;;;;;;16.68;100.00;97214.81;5027784;28;20455;-80
2021/08/05 05:46:29;;;;;;;15.43;7.60;;;;;;;16.88;100.00;97212.00;5010014;28;20061;-79
2021/08/05 05:48:56;;;;;;;11.65;7.57;;;;;;;17.05;100.00;97212.28;5026366;28;20048;-80
2021/08/05 05:51:23;;;;;;;11.70;7.68;;;;;;;17.31;100.00;97204.09;4997881;28;20472;-79
2021/08/05 05:53:49;;;;;;;9.88;6.40;;;;;;;17.50;100.00;97207.88;5008205;28;20392;-80
2021/08/05 05:56:18;;;;;;;12.65;7.07;;;;;;;17.57;100.00;97200.59;5007869;28;20042;-80
2021/08/05 05:58:45;;;;;;;18.02;7.22;;;;;;;17.62;100.00;97202.19;5007535;28;20104;-79
2021/08/05 06:01:11;;;;;;;9.25;6.43;;;;;;;17.88;100.00;97197.47;5016599;28;20105;-80
2021/08/05 06:03:38;;;;;;;15.32;6.57;;;;;;;17.96;100.00;97196.38;5009486;28;20507;-80
2021/08/05 06:06:05;;;;;;;12.02;6.82;;;;;;;17.95;100.00;97199.50;5008846;28;20093;-80
2021/08/05 06:08:34;;;;;;;9.75;6.32;;;;;;;17.94;100.00;97204.16;5025837;28;20045;-79
2021/08/05 06:11:01;;;;;;;7.55;6.15;;;;;;;18.00;100.00;97208.16;5026568;28;20121;-80
2021/08/05 06:13:27;;;;;;;13.18;6.70;;;;;;;18.08;100.00;97205.50;5033943;28;20499;-80
2021/08/05 06:15:54;;;;;;;10.63;6.10;;;;;;;18.00;100.00;97207.38;5011085;28;20061;-81
2021/08/05 06:18:23;;;;;;;8.80;5.90;;;;;;;18.04;100.00;97198.03;5010853;28;20041;-80
2021/08/05 06:20:49;;;;;;;9.60;6.10;;;;;;;18.39;100.00;97207.81;5026615;28;20060;-80
2021/08/05 06:23:16;;;;;;;8.52;5.35;;;;;;;18.49;100.00;97202.47;5026261;28;20124;-79
2021/08/05 06:25:43;;;;;;;10.90;5.63;;;;;;;18.68;100.00;97205.00;4993487;28;20050;-80
2021/08/05 06:28:09;;;;;;;12.63;5.75;;;;;;;18.48;100.00;97208.31;5010007;28;20056;-80
2021/08/05 06:30:38;;;;;;;8.18;5.53;;;;;;;18.76;100.00;97205.06;4989301;28;20073;-80
2021/08/05 06:33:05;;;;;;;9.30;5.20;;;;;;;19.01;100.00;97206.06;5006137;28;20050;-79
2021/08/05 06:35:31;;;;;;;5.63;4.57;;;;;;;19.25;100.00;97198.00;5007755;28;20042;-80
2021/08/05 06:37:58;;;;;;;8.60;5.10;;;;;;;19.21;100.00;97202.69;5008321;28;20038;-80
2021/08/05 06:40:24;;;;;;;10.43;4.95;;;;;;;19.58;100.00;97207.28;5008016;28;20050;-80
2021/08/05 06:42:51;;;;;;;7.22;4.88;;;;;;;19.52;100.00;97209.59;5027167;28;20084;-80
2021/08/05 06:45:21;;;;;;;12.52;4.30;;;;;;;19.28;100.00;97204.69;5009333;28;20049;-80
2021/08/05 06:47:49;;;;;;;8.02;4.85;;;;;;;19.06;100.00;97206.50;5026439;28;20454;-81
2021/08/05 06:50:18;;;;;;;10.55;5.82;;;;;;;19.07;100.00;97199.06;5020207;28;20046;-80
2021/08/05 06:52:46;;;;;;;12.55;5.60;;;;;;;19.04;100.00;97200.63;5008655;28;20046;-80
2021/08/05 06:55:13;;;;;;;7.72;4.97;;;;;;;19.07;100.00;97204.56;5027098;28;20419;-81
2021/08/05 06:57:40;;;;;;;8.27;5.15;;;;;;;19.16;100.00;97208.53;5025198;28;20049;-80
2021/08/05 07:00:10;;;;;;;7.85;5.07;;;;;;;19.17;100.00;97195.63;5027187;28;20124;-81
2021/08/05 07:02:40;;;;;;;7.82;4.97;;;;;;;19.22;100.00;97204.28;4989716;28;20054;-80
2021/08/05 07:05:12;;;;;;;9.63;5.80;;;;;;;19.15;100.00;97197.97;4993217;28;20052;-80
2021/08/05 07:07:39;;;;;;;8.60;5.43;;;;;;;19.32;100.00;97202.78;5010369;28;20049;-80
2021/08/05 07:10:31;;;;;;;10.02;5.32;;;;;;;19.44;100.00;97201.69;4997716;28;20489;-81
2021/08/05 07:12:58;;;;;;;9.73;5.50;;;;;;;19.76;100.00;97200.72;5029248;28;20041;-80
2021/08/05 07:15:25;;;;;;;10.10;5.20;;;;;;;19.77;100.00;97201.47;5028470;28;20049;-80
2021/08/05 07:17:54;;;;;;;7.90;5.10;;;;;;;19.91;100.00;97212.53;5028632;28;20053;-80
2021/08/05 07:20:20;;;;;;;7.68;5.50;;;;;;;19.90;100.00;97203.50;5027466;28;20053;-79
2021/08/05 07:22:47;;;;;;;10.00;5.38;;;;;;;19.92;100.00;97211.38;5028401;28;20103;-80
2021/08/05 07:25:16;;;;;;;7.28;4.95;;;;;;;19.91;100.00;97204.31;5030250;28;20065;-79
2021/08/05 07:27:46;;;;;;;7.10;4.68;;;;;;;20.15;100.00;97213.81;5012204;28;20471;-79
2021/08/05 07:30:15;;;;;;;8.95;4.97;;;;;;;20.22;100.00;97213.84;5029633;28;20417;-80
2021/08/05 07:32:46;;;;;;;6.97;5.00;;;;;;;20.32;100.00;97213.91;4992791;28;20058;-81
2021/08/05 07:35:13;;;;;;;7.93;5.05;;;;;;;20.70;100.00;97200.63;5010500;28;20049;-79
2021/08/05 07:37:39;;;;;;;7.38;5.10;;;;;;;20.66;100.00;97197.88;5010106;28;20053;-81
2021/08/05 07:40:07;;;;;;;7.47;5.00;;;;;;;20.84;100.00;97195.13;5010696;28;20104;-80
2021/08/05 07:42:34;;;;;;;8.20;5.20;;;;;;;20.65;100.00;97195.53;5028522;28;20046;-79
2021/08/05 07:45:01;;;;;;;6.78;5.30;;;;;;;20.52;100.00;97197.06;4996537;28;20049;-82
2021/08/05 07:47:28;;;;;;;6.38;4.95;;;;;;;20.46;100.00;97193.91;5014687;28;20049;-81
2021/08/05 07:49:54;;;;;;;7.50;4.97;;;;;;;20.62;100.00;97194.31;5038444;28;20557;-80
2021/08/05 07:52:21;;;;;;;8.30;5.15;;;;;;;21.05;100.00;97200.66;5034320;28;20053;-81
2021/08/05 07:54:48;;;;;;;10.00;5.07;;;;;;;20.76;100.00;97193.56;5014990;28;20049;-81
2021/08/05 07:57:15;;;;;;;8.32;4.68;;;;;;;20.72;100.00;97192.78;5014884;28;20053;-80
2021/08/05 07:59:45;;;;;;;7.50;4.68;;;;;;;20.97;100.00;97188.84;5031945;28;20053;-80
2021/08/05 08:02:13;;;;;;;8.75;4.43;;;;;;;21.07;100.00;97188.09;5013292;28;20041;-80
2021/08/05 08:04:41;;;;;;;4.53;3.80;;;;;;;20.97;100.00;97194.34;5014368;28;20053;-81
2021/08/05 08:07:07;;;;;;;5.20;3.92;;;;;;;20.91;100.00;97181.38;5031237;28;20050;-79
2021/08/05 08:09:34;;;;;;;9.40;4.25;;;;;;;20.71;100.00;97193.94;5014119;28;20045;-80
2021/08/05 08:12:01;;;;;;;6.88;4.32;;;;;;;20.65;100.00;97198.28;5002162;28;20052;-80
2021/08/05 08:14:27;;;;;;;5.03;4.25;;;;;;;20.37;100.00;97190.75;5012383;28;20054;-80
2021/08/05 08:16:54;;;;;;;8.65;4.57;;;;;;;20.23;100.00;97197.00;5007711;28;20060;-80
2021/08/05 08:19:21;;;;;;;5.80;4.75;;;;;;;20.19;100.00;97190.66;5013527;28;20052;-79
2021/08/05 08:21:47;;;;;;;10.13;5.22;;;;;;;20.04;100.00;97191.00;5003660;28;20759;-79
2021/08/05 08:24:14;;;;;;;6.30;4.85;;;;;;;20.01;100.00;97189.81;5011564;28;20046;-80
2021/08/05 08:26:41;;;;;;;5.82;4.88;;;;;;;19.53;100.00;97191.16;4993564;28;20069;-79
2021/08/05 08:29:08;;;;;;;7.88;4.95;;;;;;;19.52;100.00;97193.13;4992987;28;20060;-81
2021/08/05 08:31:35;;;;;;;10.52;5.30;;;;;;;19.47;100.00;97184.44;4993213;28;20649;-79
2021/08/05 08:34:02;;;;;;;7.68;5.32;;;;;;;19.45;100.00;97186.78;4995936;28;20148;-81
2021/08/05 08:36:29;;;;;;;7.75;5.80;;;;;;;19.45;100.00;97192.28;4980859;28;20149;-80
2021/08/05 08:38:58;;;;;;;8.25;5.47;;;;;;;19.40;100.00;97184.41;4991935;28;20549;-80
2021/08/05 08:41:25;;;;;;;9.73;5.75;;;;;;;19.39;100.00;97186.38;5013829;28;20491;-78
2021/08/05 08:43:51;;;;;;;6.65;5.38;;;;;;;19.41;100.00;97184.03;4987732;28;20064;-79
2021/08/05 08:46:21;;;;;;;7.65;6.20;;;;;;;19.44;100.00;97186.00;5044585;28;20069;-78
2021/08/05 08:48:52;;;;;;;9.00;6.20;;;;;;;19.30;100.00;97174.94;5005338;28;20046;-79
2021/08/05 08:51:22;;;;;;;7.32;6.18;;;;;;;19.47;100.00;97182.50;5024647;28;20073;-79
2021/08/05 08:53:53;;;;;;;8.10;5.45;;;;;;;19.49;100.00;97171.13;5037816;28;20370;-79
2021/08/05 08:56:22;;;;;;;11.25;6.18;;;;;;;19.43;100.00;97178.16;5039451;28;20109;-80
2021/08/05 08:58:51;;;;;;;9.98;5.82;;;;;;;19.87;100.00;97184.28;5045362;28;20055;-78
2021/08/05 09:01:18;;;;;;;8.48;5.60;;;;;;;19.57;100.00;97172.72;5013519;28;20053;-79
2021/08/05 09:03:45;;;;;;;8.73;6.18;;;;;;;19.65;100.00;97177.09;5031718;28;20132;-80
2021/08/05 09:06:12;;;;;;;7.47;6.00;;;;;;;19.80;100.00;97185.03;4996575;28;20533;-79
2021/08/05 09:08:40;;;;;;;11.63;6.60;;;;;;;19.53;100.00;97183.72;4999220;28;20443;-78
2021/08/05 09:11:07;;;;;;;8.25;6.05;;;;;;;19.60;100.00;97178.25;5011357;28;20053;-79
2021/08/05 09:13:34;;;;;;;8.05;6.47;;;;;;;19.51;100.00;97177.81;4993664;28;20049;-80
2021/08/05 09:16:02;;;;;;;11.57;6.63;;;;;;;19.28;100.00;97167.06;4993089;28;20069;-78
2021/08/05 09:18:35;;;;;;;10.43;6.93;;;;;;;19.56;100.00;97171.19;4993649;28;20046;-80
2021/08/05 09:21:11;;;;;;;10.43;6.53;;;;;;;19.84;100.00;97166.63;5011417;28;20928;-80
2021/08/05 09:23:49;;;;;;;9.30;6.78;;;;;;;20.09;100.00;97174.13;5011986;28;20041;-80
2021/08/05 09:26:33;;;;;;;8.73;6.95;;;;;;;20.26;100.00;97168.72;4991218;28;20042;-79
2021/08/05 09:29:00;;;;;;;10.50;7.13;;;;;;;20.27;100.00;97172.25;4990790;28;20593;-80
2021/08/05 09:31:30;;;;;;;10.95;6.43;;;;;;;20.54;100.00;97172.72;5005958;28;20125;-77
2021/08/05 09:34:08;;;;;;;9.57;6.68;;;;;;;20.53;100.00;97171.91;4977275;28;20121;-81
2021/08/05 09:36:37;;;;;;;8.90;6.32;;;;;;;20.70;100.00;97173.13;4996075;28;20053;-80
2021/08/05 09:39:21;;;;;;;15.73;6.40;;;;;;;20.73;100.00;97164.06;5011379;28;20511;-80
2021/08/05 09:41:51;;;;;;;11.00;7.03;;;;;;;21.01;100.00;97166.81;4978288;28;20069;-81
2021/08/05 09:44:18;;;;;;;10.30;6.72;;;;;;;20.81;100.00;97162.91;4992898;28;20045;-82
2021/08/05 09:46:45;;;;;;;8.52;6.45;;;;;;;21.05;100.00;97154.66;4991643;28;20739;-79
2021/08/05 09:49:17;;;;;;;11.32;6.82;;;;;;;21.04;100.00;97153.06;5010119;28;20046;-81
2021/08/05 09:51:57;;;;;;;8.02;6.43;;;;;;;20.78;100.00;97152.66;5009513;28;20312;-80
2021/08/05 09:54:42;;;;;;;7.90;6.20;;;;;;;20.93;100.00;97157.78;5014461;28;20037;-79
2021/08/05 09:57:20;;;;;;;8.33;6.10;;;;;;;21.04;100.00;97157.78;5029692;28;20049;-78
2021/08/05 09:59:54;;;;;;;11.10;6.35;;;;;;;20.87;100.00;97151.13;5013279;28;20418;-79
2021/08/05 10:02:22;;;;;;;8.55;6.75;;;;;;;20.83;100.00;97153.06;4995853;28;20115;-79
2021/08/05 10:04:49;;;;;;;9.20;7.15;;;;;;;20.71;100.00;97150.72;5005308;28;20121;-79
2021/08/05 10:07:18;;;;;;;7.35;6.40;;;;;;;20.61;100.00;97147.97;4988222;28;20045;-77
2021/08/05 10:10:10;;;;;;;9.73;6.70;;;;;;;20.49;100.00;97152.66;4990890;28;20121;-78
2021/08/05 10:12:38;;;;;;;9.48;6.25;;;;;;;20.30;100.00;97155.00;4997020;28;20053;-78
2021/08/05 10:15:13;;;;;;;8.48;6.50;;;;;;;20.23;100.00;97149.44;5012380;28;20052;-80
2021/08/05 10:17:42;;;;;;;9.68;7.10;;;;;;;19.86;100.00;97150.53;5007960;28;20054;-80
2021/08/05 10:20:12;;;;;;;9.77;7.30;;;;;;;19.88;100.00;97150.91;4990366;28;20069;-80
2021/08/05 10:22:41;;;;;;;11.40;8.38;;;;;;;19.80;100.00;97151.25;5025525;28;20068;-79
2021/08/05 10:25:11;;;;;;;10.63;8.07;;;;;;;19.82;100.00;97151.69;5026757;28;20053;-81
2021/08/05 10:27:38;;;;;;;16.00;8.45;;;;;;;19.84;100.00;97143.84;5010725;28;20136;-79
2021/08/05 10:30:10;;;;;;;11.65;9.00;;;;;;;19.81;100.00;97150.09;5011496;28;20049;-79
2021/08/05 10:32:37;;;;;;;13.23;8.82;;;;;;;20.03;100.00;97145.47;5030195;28;20085;-80
2021/08/05 10:35:06;;;;;;;13.68;9.48;;;;;;;20.12;100.00;97140.38;4990635;28;20478;-80
2021/08/05 10:37:33;;;;;;;12.38;8.95;;;;;;;20.20;100.00;97144.72;4974602;28;20053;-82
2021/08/05 10:40:02;;;;;;;11.60;10.15;;;;;;;19.84;100.00;97125.41;5023282;28;20205;-81
2021/08/05 10:42:34;;;;;;;13.65;9.90;;;;;;;19.50;100.00;97124.06;5006919;28;20061;-81
2021/08/05 10:45:01;;;;;;;12.25;10.30;;;;;;;19.49;100.00;97130.72;5020952;28;20074;-80
2021/08/05 10:47:31;;;;;;;13.90;10.43;;;;;;;19.48;100.00;97118.19;5018563;28;20061;-81
2021/08/05 10:50:02;;;;;;;14.05;10.07;;;;;;;19.35;100.00;97108.69;5001589;28;20145;-81
2021/08/05 10:52:37;;;;;;;16.25;10.02;;;;;;;19.46;100.00;97117.00;5036950;28;20061;-81
2021/08/05 10:55:05;;;;;;;;;;;;;;;19.53;100.00;97117.03;5023781;28;20042;-81
2021/08/05 10:57:32;;;;;;;15.25;12.63;;;;;;;19.28;100.00;97103.13;5023161;28;19932;-81
2021/08/05 11:00:03;;;;;;;18.95;12.85;;;;;;;19.26;100.00;97117.25;5042057;28;20666;-80
2021/08/05 11:02:49;;;;;;;13.30;11.75;;;;;;;19.36;100.00;97118.47;5031773;28;20069;-81
2021/08/05 11:05:23;;;;;;;15.65;12.63;;;;;;;19.19;100.00;97110.94;5031986;28;20107;-81
2021/08/05 11:07:52;;;;;;;15.30;12.05;;;;;;;19.10;100.00;97097.56;5032217;28;20147;-81
2021/08/05 11:10:33;;;;;;;13.68;10.55;;;;;;;19.21;100.00;97105.84;5015093;28;20041;-81
2021/08/05 11:13:09;;;;;;;12.98;10.60;;;;;;;19.45;100.00;97107.97;5015163;28;20053;-81
2021/08/05 11:15:38;;;;;;;13.98;11.43;;;;;;;19.49;100.00;97108.75;5014716;28;20080;-82
2021/08/05 11:18:17;;;;;;;13.57;10.98;;;;;;;19.53;100.00;97106.03;5032845;28;20061;-83
2021/08/05 11:20:54;;;;;;;16.05;11.30;;;;;;;19.60;100.00;97115.09;5014837;28;20053;-81
2021/08/05 11:23:24;;;;;;;14.90;10.77;;;;;;;19.47;100.00;97105.63;4998008;28;20061;-81
2021/08/05 11:25:55;;;;;;;11.82;10.27;;;;;;;19.59;100.00;97110.00;5013791;28;20056;-81
2021/08/05 11:28:25;;;;;;;16.00;10.52;;;;;;;19.64;100.00;97109.63;5014852;28;20052;-81